createdAt,value
2018-02-17T00:01:11.632Z,1.20
2018-02-17T00:03:39.176Z,1.30
2018-02-17T00:06:06.745Z,1.30
2018-02-17T00:08:34.314Z,1.40
2018-02-17T00:11:01.885Z,1.50
2018-02-17T00:13:29.428Z,1.50
2018-02-17T00:15:56.969Z,1.50
2018-02-17T00:18:24.533Z,1.50
2018-02-17T00:20:52.077Z,1.50
2018-02-17T00:23:19.669Z,1.60
2018-02-17T00:25:47.248Z,1.50
2018-02-17T00:28:14.841Z,1.50
2018-02-17T00:30:42.397Z,1.40
2018-02-17T00:33:09.935Z,1.40
2018-02-17T00:35:37.501Z,1.40
2018-02-17T00:38:05.821Z,1.30
2018-02-17T00:40:33.380Z,1.30
2018-02-17T00:43:01.868Z,1.30
2018-02-17T00:45:29.684Z,1.40
2018-02-17T00:47:57.223Z,1.40
2018-02-17T00:50:24.777Z,1.40
2018-02-17T00:52:53.108Z,1.20
2018-02-17T00:55:20.648Z,1.20
2018-02-17T00:57:48.992Z,1.20
2018-02-17T01:00:16.556Z,1.20
2018-02-17T01:02:44.747Z,1.30
2018-02-17T01:05:12.291Z,1.30
2018-02-17T01:07:39.849Z,1.30
2018-02-17T01:10:07.424Z,1.30
2018-02-17T01:12:34.991Z,1.30
2018-02-17T01:15:02.560Z,1.30
2018-02-17T01:17:30.125Z,1.30
2018-02-17T01:19:58.469Z,1.40
2018-02-17T01:22:26.021Z,1.30
2018-02-17T01:24:53.561Z,1.40
2018-02-17T01:27:21.125Z,1.50
2018-02-17T01:29:49.448Z,1.40
2018-02-17T01:32:17.026Z,1.40
2018-02-17T01:34:44.588Z,1.30
2018-02-17T01:37:12.164Z,1.30
2018-02-17T01:39:39.714Z,1.30
2018-02-17T01:42:08.128Z,1.40
2018-02-17T01:44:35.689Z,1.40
2018-02-17T01:47:03.240Z,1.40
2018-02-17T01:49:31.572Z,1.30
2018-02-17T01:51:59.112Z,1.30
2018-02-17T01:54:27.463Z,1.40
2018-02-17T01:56:55.007Z,1.30
2018-02-17T01:59:22.547Z,1.30
2018-02-17T02:01:50.876Z,1.30
2018-02-17T02:04:18.432Z,1.30
2018-02-17T02:06:46.012Z,1.30
2018-02-17T02:09:14.239Z,1.30
2018-02-17T02:11:41.811Z,1.40
2018-02-17T02:14:09.361Z,1.40
2018-02-17T02:16:36.913Z,1.40
2018-02-17T02:19:04.484Z,1.50
2018-02-17T02:21:32.038Z,1.40
2018-02-17T02:23:59.611Z,1.40
2018-02-17T02:26:27.160Z,1.40
2018-02-17T02:28:55.497Z,1.30
2018-02-17T02:31:23.050Z,1.30
2018-02-17T02:33:50.619Z,1.30
2018-02-17T02:36:18.204Z,1.30
2018-02-17T02:38:45.764Z,1.30
2018-02-17T02:41:13.334Z,1.30
2018-02-17T02:43:40.878Z,1.30
2018-02-17T02:46:08.437Z,1.30
2018-02-17T02:48:36.779Z,1.30
2018-02-17T02:51:04.331Z,1.30
2018-02-17T02:53:31.901Z,1.30
2018-02-17T02:55:59.457Z,1.30
2018-02-17T02:58:27.765Z,1.30
2018-02-17T03:00:55.330Z,1.30
2018-02-17T03:03:22.887Z,1.30
2018-02-17T03:05:51.225Z,1.30
2018-02-17T03:08:18.772Z,1.30
2018-02-17T03:10:46.475Z,1.30
2018-02-17T03:13:14.036Z,1.30
2018-02-17T03:15:41.596Z,1.20
2018-02-17T03:18:09.161Z,1.20
2018-02-17T03:20:36.716Z,1.20
2018-02-17T03:23:04.264Z,1.30
2018-02-17T03:25:32.608Z,1.20
2018-02-17T03:28:00.156Z,1.20
2018-02-17T03:30:27.726Z,1.20
2018-02-17T03:32:55.271Z,1.10
2018-02-17T03:35:23.581Z,1.10
2018-02-17T03:37:51.156Z,1.10
2018-02-17T03:40:18.729Z,1.10
2018-02-17T03:42:46.316Z,1.20
2018-02-17T03:45:13.869Z,1.20
2018-02-17T03:47:41.410Z,1.20
2018-02-17T03:50:09.748Z,1.30
2018-02-17T03:52:37.296Z,1.20
2018-02-17T03:55:04.896Z,1.30
2018-02-17T03:57:32.450Z,1.30
2018-02-17T03:59:59.991Z,1.30
2018-02-17T04:02:27.561Z,1.30
2018-02-17T04:04:55.877Z,1.30
2018-02-17T04:07:23.457Z,1.30
2018-02-17T04:09:51.005Z,1.30
2018-02-17T04:12:18.602Z,1.40
2018-02-17T04:14:46.171Z,1.40
2018-02-17T04:17:13.712Z,1.40
2018-02-17T04:19:42.044Z,1.40
2018-02-17T04:22:09.591Z,1.30
2018-02-17T04:24:37.140Z,1.40
2018-02-17T04:27:05.465Z,1.40
2018-02-17T04:29:33.062Z,1.30
2018-02-17T04:32:00.875Z,1.30
2018-02-17T04:34:28.436Z,1.40
2018-02-17T04:36:55.989Z,1.40
2018-02-17T04:39:23.556Z,1.40
2018-02-17T04:45:15.827Z,1.40
2018-02-17T04:48:02.096Z,1.30
2018-02-17T04:53:56.656Z,1.40
2018-02-17T04:56:29.809Z,1.40
2018-02-17T04:59:01.368Z,1.40
2018-02-17T05:01:35.487Z,1.40
2018-02-17T05:04:03.047Z,1.40
2018-02-17T05:06:35.100Z,1.30
2018-02-17T05:09:02.650Z,1.30
2018-02-17T05:11:30.227Z,1.40
2018-02-17T05:13:59.516Z,1.40
2018-02-17T05:16:30.671Z,1.30
2018-02-17T05:19:01.896Z,1.30
2018-02-17T05:21:33.464Z,1.30
2018-02-17T05:24:10.937Z,1.30
2018-02-17T05:26:42.713Z,1.30
2018-02-17T05:29:12.061Z,1.30
2018-02-17T05:31:40.284Z,1.20
2018-02-17T05:34:13.473Z,1.30
2018-02-17T05:36:42.572Z,1.30
2018-02-17T05:39:10.909Z,1.40
2018-02-17T05:41:52.313Z,1.40
2018-02-17T05:44:25.582Z,1.40
2018-02-17T05:49:53.953Z,1.40
2018-02-17T05:52:21.497Z,1.40
2018-02-17T05:54:49.064Z,1.40
2018-02-17T05:57:16.649Z,1.40
2018-02-17T05:59:44.203Z,1.40
2018-02-17T06:02:11.776Z,1.30
2018-02-17T06:04:39.339Z,1.40
2018-02-17T06:07:06.893Z,1.30
2018-02-17T06:09:34.488Z,1.30
2018-02-17T06:12:02.029Z,1.30
2018-02-17T06:14:29.625Z,1.20
2018-02-17T06:16:57.189Z,1.20
2018-02-17T06:19:25.480Z,1.20
2018-02-17T06:21:53.044Z,1.20
2018-02-17T06:24:20.609Z,1.20
2018-02-17T06:26:49.252Z,1.20
2018-02-17T06:29:16.801Z,1.20
2018-02-17T06:31:44.363Z,1.20
2018-02-17T06:34:11.999Z,1.20
2018-02-17T06:36:39.543Z,1.20
2018-02-17T06:39:07.379Z,1.10
2018-02-17T06:41:34.920Z,1.20
2018-02-17T06:44:03.266Z,1.20
2018-02-17T06:46:30.833Z,1.20
2018-02-17T06:48:58.372Z,1.20
2018-02-17T06:51:25.936Z,1.20
2018-02-17T06:53:54.304Z,1.30
2018-02-17T06:56:22.836Z,1.30
2018-02-17T06:58:50.494Z,1.30
2018-02-17T07:01:18.146Z,1.30
2018-02-17T07:03:45.781Z,1.30
2018-02-17T07:06:13.394Z,1.40
2018-02-17T07:08:40.939Z,1.40
2018-02-17T07:11:08.500Z,1.40
2018-02-17T07:13:36.040Z,1.40
2018-02-17T07:16:03.629Z,1.40
2018-02-17T07:18:33.157Z,1.40
2018-02-17T07:21:00.705Z,1.40
2018-02-17T07:23:28.327Z,1.40
2018-02-17T07:25:55.876Z,1.40
2018-02-17T07:28:23.440Z,1.50
2018-02-17T07:30:50.980Z,1.50
2018-02-17T07:33:18.644Z,1.50
2018-02-17T07:35:46.226Z,1.50
2018-02-17T07:38:13.784Z,1.50
2018-02-17T07:40:43.387Z,1.60
2018-02-17T07:43:11.700Z,1.60
2018-02-17T07:45:39.244Z,1.60
2018-02-17T07:48:06.823Z,1.70
2018-02-17T07:50:35.136Z,1.70
2018-02-17T07:53:03.067Z,1.60
2018-02-17T07:55:32.958Z,1.70
2018-02-17T07:58:01.441Z,1.70
2018-02-17T08:00:29.008Z,1.70
2018-02-17T08:02:56.556Z,1.70
2018-02-17T08:05:24.134Z,1.70
2018-02-17T08:07:52.454Z,1.80
2018-02-17T08:10:20.017Z,1.80
2018-02-17T08:12:47.593Z,1.90
2018-02-17T08:15:15.175Z,1.90
2018-02-17T08:17:42.776Z,1.90
2018-02-17T08:20:10.320Z,2.10
2018-02-17T08:22:37.853Z,2.10
2018-02-17T08:25:05.444Z,2.10
2018-02-17T08:27:32.996Z,2.10
2018-02-17T08:30:01.327Z,2.20
2018-02-17T08:32:29.645Z,2.20
2018-02-17T08:34:57.196Z,2.20
2018-02-17T08:37:25.136Z,2.30
2018-02-17T08:39:52.682Z,2.30
2018-02-17T08:42:20.318Z,2.40
2018-02-17T08:44:47.864Z,2.40
2018-02-17T08:47:15.419Z,2.50
2018-02-17T08:49:42.993Z,2.60
2018-02-17T08:52:10.570Z,2.60
2018-02-17T08:54:38.166Z,2.70
2018-02-17T08:57:06.637Z,2.80
2018-02-17T08:59:34.204Z,2.90
2018-02-17T09:02:01.778Z,2.90
2018-02-17T09:04:29.320Z,3.00
2018-02-17T09:06:56.911Z,3.10
2018-02-17T09:09:25.605Z,3.30
2018-02-17T09:11:53.165Z,3.30
2018-02-17T09:14:21.501Z,3.50
2018-02-17T09:16:49.050Z,3.40
2018-02-17T09:19:16.929Z,3.50
2018-02-17T09:21:44.487Z,3.60
2018-02-17T09:24:12.797Z,3.60
2018-02-17T09:26:40.379Z,3.60
2018-02-17T09:29:07.978Z,3.70
2018-02-17T09:31:35.556Z,3.80
2018-02-17T09:34:03.099Z,3.90
2018-02-17T09:36:30.659Z,3.90
2018-02-17T09:38:58.252Z,3.90
2018-02-17T09:41:25.792Z,4.00
2018-02-17T09:43:53.960Z,3.90
2018-02-17T09:46:21.535Z,3.90
2018-02-17T09:48:49.845Z,4.00
2018-02-17T09:51:17.557Z,4.00
2018-02-17T09:53:45.193Z,4.00
2018-02-17T09:56:12.765Z,4.10
2018-02-17T09:58:40.308Z,4.20
2018-02-17T10:01:07.848Z,4.20
2018-02-17T10:03:35.415Z,4.30
2018-02-17T10:06:02.957Z,4.50
2018-02-17T10:08:31.852Z,4.70
2018-02-17T10:10:59.452Z,4.70
2018-02-17T10:13:26.973Z,5.00
2018-02-17T10:15:55.301Z,5.10
2018-02-17T10:18:22.862Z,5.10
2018-02-17T10:20:51.036Z,5.20
2018-02-17T10:23:18.601Z,5.20
2018-02-17T10:25:46.190Z,5.40
2018-02-17T10:28:13.764Z,5.60
2018-02-17T10:30:41.310Z,5.90
2018-02-17T10:33:09.141Z,6.10
2018-02-17T10:35:36.757Z,6.20
2018-02-17T10:38:04.308Z,6.40
2018-02-17T10:40:31.868Z,6.40
2018-02-17T10:43:00.172Z,6.70
2018-02-17T10:45:28.507Z,6.60
2018-02-17T10:47:56.057Z,6.60
2018-02-17T10:50:24.364Z,6.80
2018-02-17T10:52:52.692Z,6.80
2018-02-17T10:55:20.228Z,6.70
2018-02-17T10:57:47.760Z,6.80
2018-02-17T11:00:15.326Z,6.80
2018-02-17T11:02:43.728Z,7.30
2018-02-17T11:05:12.056Z,7.80
2018-02-17T11:07:39.600Z,7.80
2018-02-17T11:10:07.905Z,7.90
2018-02-17T11:12:36.223Z,7.80
2018-02-17T11:15:04.518Z,7.70
2018-02-17T11:17:32.940Z,7.50
2018-02-17T11:20:00.476Z,7.50
2018-02-17T11:22:28.653Z,7.60
2018-02-17T11:24:56.972Z,7.60
2018-02-17T11:27:24.503Z,7.60
2018-02-17T11:29:52.066Z,7.70
2018-02-17T11:32:20.375Z,7.90
2018-02-17T11:34:48.682Z,8.10
2018-02-17T11:37:16.237Z,8.00
2018-02-17T11:39:43.772Z,8.20
2018-02-17T11:42:11.332Z,8.20
2018-02-17T11:44:38.873Z,8.30
2018-02-17T11:47:06.408Z,8.40
2018-02-17T11:49:33.966Z,8.50
2018-02-17T11:52:03.070Z,9.80
2018-02-17T11:54:30.637Z,9.70
2018-02-17T11:56:58.175Z,10.20
2018-02-17T11:59:25.716Z,10.50
2018-02-17T12:01:53.277Z,10.80
2018-02-17T12:04:20.817Z,10.30
2018-02-17T12:06:48.384Z,10.20
2018-02-17T12:09:16.680Z,9.30
2018-02-17T12:11:45.005Z,9.10
2018-02-17T12:14:12.573Z,9.10
2018-02-17T12:16:40.902Z,9.10
2018-02-17T12:19:08.471Z,9.10
2018-02-17T12:21:36.004Z,9.30
2018-02-17T12:24:03.560Z,9.60
2018-02-17T12:26:31.097Z,9.80
2018-02-17T12:28:59.433Z,9.50
2018-02-17T12:31:26.969Z,9.40
2018-02-17T12:33:54.525Z,9.50
2018-02-17T12:36:22.076Z,9.70
2018-02-17T12:38:49.704Z,10.00
2018-02-17T12:41:17.973Z,10.50
2018-02-17T12:43:45.546Z,11.20
2018-02-17T12:46:15.849Z,11.60
2018-02-17T12:48:43.420Z,12.20
2018-02-17T12:51:10.966Z,12.70
2018-02-17T12:53:38.536Z,12.70
2018-02-17T12:56:06.838Z,13.60
2018-02-17T12:58:34.405Z,13.60
2018-02-17T13:01:02.741Z,13.60
2018-02-17T13:03:30.281Z,13.50
2018-02-17T13:05:57.846Z,13.90
2018-02-17T13:08:25.391Z,13.60
2018-02-17T13:10:52.944Z,13.50
2018-02-17T13:13:21.250Z,14.10
2018-02-17T13:15:49.588Z,14.30
2018-02-17T13:18:17.120Z,14.30
2018-02-17T13:20:44.666Z,14.70
2018-02-17T13:23:13.859Z,15.20
2018-02-17T13:25:42.357Z,14.80
2018-02-17T13:28:10.012Z,14.70
2018-02-17T13:30:37.548Z,14.80
2018-02-17T13:33:05.122Z,14.90
2018-02-17T13:35:32.670Z,15.50
2018-02-17T13:38:01.029Z,15.10
2018-02-17T13:40:28.602Z,15.10
2018-02-17T13:42:56.137Z,15.10
2018-02-17T13:45:23.699Z,14.90
2018-02-17T13:47:51.239Z,14.60
2018-02-17T13:50:18.800Z,14.60
2018-02-17T13:52:47.109Z,14.40
2018-02-17T13:55:15.454Z,14.10
2018-02-17T14:00:40.024Z,13.90
2018-02-17T14:03:10.512Z,13.70
2018-02-17T14:05:38.840Z,12.00
2018-02-17T14:08:06.382Z,12.00
2018-02-17T14:10:33.920Z,11.50
2018-02-17T14:13:01.482Z,11.10
2018-02-17T14:15:29.020Z,10.50
2018-02-17T14:17:56.586Z,10.30
2018-02-17T14:20:24.146Z,10.20
2018-02-17T14:22:51.721Z,9.80
2018-02-17T14:25:19.257Z,9.60
2018-02-17T14:27:46.815Z,9.30
2018-02-17T14:30:14.404Z,9.30
2018-02-17T14:32:41.961Z,9.00
2018-02-17T14:35:09.546Z,9.00
2018-02-17T14:37:37.380Z,9.00
2018-02-17T14:40:04.918Z,8.80
2018-02-17T14:42:32.576Z,8.60
2018-02-17T14:45:00.260Z,8.60
2018-02-17T14:47:27.823Z,8.50
2018-02-17T14:49:56.127Z,8.40
2018-02-17T14:52:24.446Z,8.40
2018-02-17T14:54:54.289Z,8.40
2018-02-17T14:57:21.856Z,8.40
2018-02-17T14:59:50.160Z,8.60
2018-02-17T15:02:18.480Z,8.70
2018-02-17T15:04:46.012Z,8.70
2018-02-17T15:10:11.787Z,8.10
2018-02-17T15:12:39.433Z,8.10
2018-02-17T15:15:07.716Z,7.80
2018-02-17T15:17:36.045Z,7.60
2018-02-17T15:20:03.604Z,7.60
2018-02-17T15:22:31.947Z,7.40
2018-02-17T15:24:59.540Z,7.40
2018-02-17T15:27:27.110Z,7.20
2018-02-17T15:29:54.681Z,7.20
2018-02-17T15:32:22.216Z,7.10
2018-02-17T15:34:49.803Z,7.00
2018-02-17T15:37:17.338Z,7.10
2018-02-17T15:39:44.909Z,7.00
2018-02-17T15:42:12.445Z,7.10
2018-02-17T15:44:40.025Z,7.00
2018-02-17T15:47:07.692Z,7.00
2018-02-17T15:49:35.253Z,6.90
2018-02-17T15:52:02.791Z,7.00
2018-02-17T15:54:30.340Z,6.90
2018-02-17T15:56:58.448Z,6.80
2018-02-17T15:59:26.036Z,6.70
2018-02-17T16:01:53.564Z,6.60
2018-02-17T16:04:21.912Z,6.60
2018-02-17T16:06:49.450Z,6.50
2018-02-17T16:09:17.271Z,6.50
2018-02-17T16:11:44.968Z,6.30
2018-02-17T16:14:12.524Z,6.20
2018-02-17T16:16:40.082Z,5.90
2018-02-17T16:19:08.546Z,5.80
2018-02-17T16:21:36.088Z,5.80
2018-02-17T16:24:03.660Z,5.70
2018-02-17T16:26:31.957Z,5.40
2018-02-17T16:29:00.284Z,5.20
2018-02-17T16:31:27.823Z,5.20
2018-02-17T16:33:55.364Z,5.10
2018-02-17T16:36:22.927Z,4.90
2018-02-17T16:38:51.236Z,4.60
2018-02-17T16:41:18.810Z,4.60
2018-02-17T16:43:46.372Z,4.40
2018-02-17T16:46:14.791Z,4.30
2018-02-17T16:48:42.370Z,4.10
2018-02-17T16:51:09.956Z,4.00
2018-02-17T16:53:37.498Z,3.80
2018-02-17T16:56:05.062Z,3.70
2018-02-17T16:58:32.612Z,3.60
2018-02-17T17:01:00.935Z,3.30
2018-02-17T17:03:28.473Z,3.30
2018-02-17T17:05:56.025Z,3.20
2018-02-17T17:08:23.568Z,3.10
2018-02-17T17:10:51.941Z,2.90
2018-02-17T17:13:19.484Z,2.80
2018-02-17T17:15:47.069Z,2.80
2018-02-17T17:18:15.334Z,2.70
2018-02-17T17:20:43.639Z,2.50
2018-02-17T17:23:11.206Z,2.40
2018-02-17T17:25:38.758Z,2.40
2018-02-17T17:28:10.755Z,2.30
2018-02-17T17:30:38.338Z,2.20
2018-02-17T17:33:05.896Z,2.10
2018-02-17T17:35:33.461Z,2.10
2018-02-17T17:38:01.776Z,2.00
2018-02-17T17:40:29.309Z,2.00
2018-02-17T17:42:56.872Z,1.90
2018-02-17T17:45:24.408Z,1.90
2018-02-17T17:47:52.729Z,1.80
2018-02-17T17:50:20.271Z,1.80
2018-02-17T17:52:47.839Z,1.70
2018-02-17T17:55:15.388Z,1.60
2018-02-17T17:57:42.964Z,1.60
2018-02-17T18:00:10.508Z,1.60
2018-02-17T18:02:38.069Z,1.50
2018-02-17T18:05:05.633Z,1.50
2018-02-17T18:07:33.168Z,1.50
2018-02-17T18:10:02.231Z,1.50
2018-02-17T18:12:29.830Z,1.40
2018-02-17T18:14:57.393Z,1.40
2018-02-17T18:17:24.935Z,1.30
2018-02-17T18:19:52.498Z,1.30
2018-02-17T18:22:20.041Z,1.30
2018-02-17T18:24:47.603Z,1.20
2018-02-17T18:27:15.911Z,1.10
2018-02-17T18:29:43.477Z,1.00
2018-02-17T18:32:11.855Z,1.00
2018-02-17T18:34:39.377Z,1.00
2018-02-17T18:37:06.927Z,1.00
2018-02-17T18:39:34.500Z,1.00
2018-02-17T18:42:02.037Z,1.00
2018-02-17T18:44:29.580Z,0.90
2018-02-17T18:46:57.145Z,0.90
2018-02-17T18:49:24.692Z,0.80
2018-02-17T18:51:52.254Z,0.90
2018-02-17T18:54:20.564Z,0.90
2018-02-17T18:56:48.130Z,0.80
2018-02-17T18:59:15.670Z,0.80
2018-02-17T19:01:43.233Z,0.80
2018-02-17T19:04:10.809Z,0.80
2018-02-17T19:06:38.642Z,0.80
2018-02-17T19:09:06.187Z,0.70
2018-02-17T19:11:33.765Z,0.70
2018-02-17T19:14:02.116Z,0.70
2018-02-17T19:16:29.743Z,0.80
2018-02-17T19:18:57.291Z,0.80
2018-02-17T19:21:24.858Z,1.00
2018-02-17T19:23:52.563Z,1.00
2018-02-17T19:26:20.517Z,1.00
2018-02-17T19:28:48.237Z,1.10
2018-02-17T19:31:15.785Z,1.20
2018-02-17T19:33:43.363Z,1.20
2018-02-17T19:36:10.912Z,1.20
2018-02-17T19:38:39.245Z,1.20
2018-02-17T19:41:06.795Z,1.20
2018-02-17T19:43:35.132Z,1.30
2018-02-17T19:46:02.677Z,1.30
2018-02-17T19:48:31.059Z,1.20
2018-02-17T19:50:58.579Z,1.20
2018-02-17T19:53:26.921Z,1.30
2018-02-17T19:55:54.460Z,1.30
2018-02-17T19:58:22.804Z,1.30
2018-02-17T20:00:50.345Z,1.30
2018-02-17T20:03:18.694Z,1.30
2018-02-17T20:05:46.237Z,1.30
2018-02-17T20:08:14.540Z,1.30
2018-02-17T20:10:42.118Z,1.30
2018-02-17T20:13:09.669Z,1.30
2018-02-17T20:15:37.232Z,1.30
2018-02-17T20:18:04.772Z,1.30
2018-02-17T20:20:32.328Z,1.20
2018-02-17T20:22:59.861Z,1.20
2018-02-17T20:25:27.459Z,1.10
2018-02-17T20:27:55.004Z,1.10
2018-02-17T20:30:23.344Z,1.10
2018-02-17T20:32:50.899Z,1.00
2018-02-17T20:35:18.468Z,1.00
2018-02-17T20:37:46.798Z,1.00
2018-02-17T20:40:14.360Z,0.90
2018-02-17T20:42:41.928Z,0.90
2018-02-17T20:45:10.756Z,0.80
2018-02-17T20:47:38.332Z,0.80
2018-02-17T20:50:06.658Z,0.70
2018-02-17T20:52:34.225Z,0.70
2018-02-17T20:57:35.772Z,0.70
2018-02-17T21:00:03.362Z,0.80
2018-02-17T21:02:30.905Z,0.80
2018-02-17T21:04:59.209Z,0.80
2018-02-17T21:07:27.549Z,0.90
2018-02-17T21:09:55.093Z,0.90
2018-02-17T21:12:23.427Z,1.00
2018-02-17T21:14:50.973Z,1.00
2018-02-17T21:17:19.300Z,1.00
2018-02-17T21:19:46.843Z,1.00
2018-02-17T21:22:14.471Z,1.00
2018-02-17T21:24:42.748Z,0.90
2018-02-17T21:27:10.467Z,0.90
2018-02-17T21:29:38.020Z,0.90
2018-02-17T21:32:06.336Z,0.90
2018-02-17T21:34:33.905Z,0.90
2018-02-17T21:37:02.228Z,0.80
2018-02-17T21:39:29.791Z,0.80
2018-02-17T21:41:58.112Z,0.80
2018-02-17T21:44:25.685Z,0.80
2018-02-17T21:46:53.225Z,0.70
2018-02-17T21:49:20.783Z,0.70
2018-02-17T21:51:48.336Z,0.60
2018-02-17T21:54:15.912Z,0.60
2018-02-17T21:56:44.222Z,0.50
2018-02-17T21:59:11.814Z,0.50
2018-02-17T22:01:39.357Z,0.50
2018-02-17T22:04:06.921Z,0.50
2018-02-17T22:06:34.465Z,0.50
2018-02-17T22:09:02.057Z,0.40
2018-02-17T22:11:29.605Z,0.40
2018-02-17T22:13:57.920Z,0.40
2018-02-17T22:16:26.260Z,0.40
2018-02-17T22:18:54.131Z,0.40
2018-02-17T22:21:21.784Z,0.40
2018-02-17T22:23:50.657Z,0.30
2018-02-17T22:26:18.365Z,0.40
2018-02-17T22:28:45.901Z,0.40
2018-02-17T22:31:14.231Z,0.30
2018-02-17T22:33:41.781Z,0.30
2018-02-17T22:36:10.128Z,0.30
2018-02-17T22:38:37.668Z,0.30
2018-02-17T22:41:06.004Z,0.30
2018-02-17T22:43:33.553Z,0.30
2018-02-17T22:46:01.113Z,0.30
2018-02-17T22:48:28.653Z,0.30
2018-02-17T22:50:56.238Z,0.30
2018-02-17T22:53:23.781Z,0.30
2018-02-17T22:55:51.339Z,0.40
2018-02-17T22:58:18.896Z,0.40
2018-02-17T23:00:46.433Z,0.30
2018-02-17T23:03:14.019Z,0.30
2018-02-17T23:05:41.560Z,0.20
2018-02-17T23:08:09.117Z,0.10
2018-02-17T23:10:36.654Z,0.10
2018-02-17T23:13:04.221Z,0.00
2018-02-17T23:15:31.778Z,0.10
2018-02-17T23:17:59.337Z,0.00
2018-02-17T23:20:28.329Z,0.00
2018-02-17T23:22:55.893Z,0.00
2018-02-17T23:25:23.432Z,0.00
2018-02-17T23:27:51.765Z,-0.10
2018-02-17T23:30:19.307Z,-0.10
2018-02-17T23:32:47.640Z,-0.10
2018-02-17T23:35:15.184Z,-0.10
2018-02-17T23:37:42.728Z,-0.10
2018-02-17T23:40:10.312Z,0.00
2018-02-17T23:42:37.853Z,-0.10
2018-02-17T23:45:06.181Z,0.00
2018-02-17T23:47:33.721Z,-0.10
2018-02-17T23:50:02.046Z,0.00
2018-02-17T23:52:29.584Z,0.00
2018-02-17T23:54:57.148Z,0.00
2018-02-17T23:57:24.696Z,0.00
2018-02-17T23:59:52.259Z,0.00
